• Join FlightAware (Why Join?)
  • Login
  • US Flag 
02:17AM EDT


 

Airport Tracker/Info


-or-


 

Live Flight TrackerFlight Track Log ✈ DAL1979 ✈ 06-May-2013 ✈ KMCO - KMSP

Flight Track Log - Related Links

Times and Time Zones

All times are in EDT time to prevent confusion due to time zone crossing. See the DAL1979 flight status page for this flight to view local times or setup timezone preferences in your user account.

Time Position Orientation Groundspeed Altitude Reporting Facility
EDT Latitude Longitude Course Direction KTS MPH feet Rate Location/Type
04:03PM 28.4130 -81.2960 164° South 176 203 200  Level FlightAware
04:03PM 28.4040 -81.2950 174° South 180 207 600 2,640 Climbing FlightAware
04:03PM 28.3910 -81.2970 188° South 177 204 1,300 2,100 Climbing FlightAware
04:04PM 28.3680 -81.3130 211° Southwest 201 231 2,200 1,800 Climbing FlightAware
04:04PM 28.3480 -81.3300 217° Southwest 229 264 3,000 1,800 Climbing FlightAware
04:04PM 28.3400 -81.3460 240° Southwest 241 277 3,400 1,980 Climbing FlightAware
04:05PM 28.3400 -81.3650 270° West 250 288 4,000 2,760 Climbing FlightAware
04:05PM 28.3410 -81.3860 273° West 253 291 4,800 3,420 Climbing FlightAware
04:05PM 28.3450 -81.4190 278° West 246 283 6,300 3,420 Climbing FlightAware
04:06PM 28.3480 -81.4380 280° West 245 282 7,100 2,220 Climbing FlightAware
04:06PM 28.3530 -81.4690 280° West 258 297 7,800 2,460 Climbing FlightAware
04:06PM 28.3590 -81.5100 279° West 254 292 9,400 2,520 Climbing FlightAware
04:07PM 28.3650 -81.5650 277° West 275 316 10,800 1,440 Climbing FlightAware
04:08PM 28.3730 -81.6370 277° West 327 376 11,500 1,320 Climbing FlightAware
04:09PM 28.3820 -81.7050 279° West 344 396 12,700 2,040 Climbing FlightAware
04:09PM 28.3910 -81.7880 277° West 352 405 14,400 2,220 Climbing FlightAware
04:10PM 28.3990 -81.8600 277° West 356 410 15,900 2,220 Climbing FlightAware
04:11PM 28.4070 -81.9340 277° West 361 415 17,400 2,100 Climbing FlightAware
04:11PM 28.4160 -82.0240 277° West 370 426 18,900 1,920 Climbing FlightAware
04:12PM 28.4250 -82.1070 277° West 375 432 20,200 1,920 Climbing FlightAware
04:13PM 28.4350 -82.1990 277° West 376 433 21,700 1,740 Climbing FlightAware
04:13PM 28.4440 -82.2760 278° West 384 442 22,700 1,560 Climbing FlightAware
04:14PM 28.4530 -82.3560 277° West 388 447 23,800 1,380 Climbing FlightAware
04:15PM 28.4790 -82.4420 289° West 406 467 24,700 1,200 Climbing FlightAware
04:15PM 28.5260 -82.4910 318° Northwest 421 484 25,400 1,320 Climbing FlightAware
04:16PM 28.6010 -82.5510 325° Northwest 425 489 26,500 1,320 Climbing FlightAware
04:17PM 28.6640 -82.6010 325° Northwest 426 490 27,300 1,200 Climbing FlightAware
04:18PM 28.7290 -82.6530 325° Northwest 429 494 28,100 1,320 Climbing FlightAware
04:18PM 28.7970 -82.7080 325° Northwest 418 481 29,100 1,560 Climbing FlightAware
04:19PM 28.9070 -82.7970 325° Northwest 411 473 31,000 1,440 Climbing FlightAware
04:20PM 28.9840 -82.8600 324° Northwest 400 460 32,000 720 Climbing FlightAware
04:22PM 29.1080 -82.9620 324° Northwest 403 464 32,700 300 Climbing FlightAware
04:22PM 29.1580 -83.0060 322° Northwest 403 464 32,700 1,020 Level FlightAware
04:23PM 29.2470 -83.0740 326° Northwest 415 478 34,100 1,260 Climbing FlightAware
04:24PM 29.3210 -83.1330 325° Northwest 415 478 34,500 780 Climbing FlightAware
04:25PM 29.4240 -83.2180 324° Northwest 402 463 35,600 840 Climbing FlightAware
04:25PM 29.4780 -83.2620 325° Northwest 403 464 35,900 240 Climbing FlightAware
04:26PM 29.5520 -83.3230 324° Northwest 403 464 36,000  Climbing FlightAware
04:28PM 29.7010 -83.4460 324° Northwest 404 465 36,000  Level FlightAware
04:29PM 29.7530 -83.4890 324° Northwest 402 463 36,000  Level FlightAware
04:29PM 29.8270 -83.5500 324° Northwest 403 464 36,000  Level FlightAware
04:30PM 29.8760 -83.5930 323° Northwest 403 464 36,000  Level FlightAware
04:31PM 29.9270 -83.6370 323° Northwest 403 464 36,000  Level FlightAware
04:31PM 29.9900 -83.6920 323° Northwest 403 464 36,000  Level FlightAware
04:32PM 30.0410 -83.7360 323° Northwest 403 464 36,000  Level FlightAware
04:33PM 30.0910 -83.7800 323° Northwest 403 464 36,000  Level FlightAware
04:33PM 30.1420 -83.8240 323° Northwest 403 464 36,000  Level FlightAware
04:34PM 30.2930 -83.9380 327° Northwest 423 487 36,000  Level FlightAware
04:35PM 30.3540 -83.9900 324° Northwest 421 484 36,000  Level FlightAware
04:36PM 30.4250 -84.0490 324° Northwest 423 487 36,000  Level FlightAware
04:36PM 30.4980 -84.1100 324° Northwest 423 487 36,000  Level FlightAware
04:37PM 30.5580 -84.1610 324° Northwest 423 487 36,000  Level FlightAware
04:38PM 30.6160 -84.2110 323° Northwest 423 487 36,000  Level FlightAware
04:38PM 30.6950 -84.2770 324° Northwest 423 487 36,000  Level FlightAware
04:39PM 30.7700 -84.3410 324° Northwest 424 488 36,000  Level FlightAware
04:40PM 30.7830 -84.3530 322° Northwest 424 488 36,000  Level FlightAware
04:41PM 30.9150 -84.4640 324° Northwest 422 486 36,000  Level FlightAware
04:41PM 30.9680 -84.5100 323° Northwest 421 484 36,000  Level FlightAware
04:42PM 31.0290 -84.5630 323° Northwest 421 484 36,000  Level FlightAware
04:43PM 31.0030 -84.5400 143° Southeast 419 482 36,000  Level FlightAware
04:44PM 30.9680 -84.5100 144° Southeast 419 482 36,000  Level FlightAware
04:45PM 31.0290 -84.5630 323° Northwest 419 482 36,000  Level FlightAware
04:46PM 31.0810 -84.6090 323° Northwest 419 482 36,000  Level FlightAware
04:46PM 31.1340 -84.6560 323° Northwest 419 482 36,000  Level FlightAware
04:47PM 31.1870 -84.7020 323° Northwest 419 482 36,000  Level FlightAware
04:48PM 31.2530 -84.7600 323° Northwest 419 482 36,000  Level FlightAware
04:48PM 31.3050 -84.8060 323° Northwest 419 482 36,000  Level FlightAware
04:49PM 31.3580 -84.8530 323° Northwest 419 482 36,000  Level FlightAware
04:50PM 31.4100 -84.8990 323° Northwest 419 482 36,000  Level FlightAware
04:50PM 31.4630 -84.9460 323° Northwest 419 482 36,000  Level FlightAware
04:51PM 31.5290 -85.0040 323° Northwest 419 482 36,000  Level FlightAware
04:52PM 31.5810 -85.0500 323° Northwest 419 482 36,000  Level FlightAware
04:53PM 31.6340 -85.0970 323° Northwest 419 482 36,000  Level FlightAware
04:53PM 31.6870 -85.1440 323° Northwest 419 482 36,000  Level FlightAware
04:54PM 31.7530 -85.2020 323° Northwest 419 482 36,000  Level FlightAware
04:55PM 32.2189 -85.5928 323° Northwest 420 483 36,000  Level Atlanta Center
04:56PM 32.3264 -85.6858 324° Northwest 420 483 36,000  Level Atlanta Center
04:57PM 32.4211 -85.7711 323° Northwest 425 489 36,000  Level Atlanta Center
04:59PM 32.5755 -85.8968 326° Northwest  Level FlightAware Approximate
05:00PM 32.7094 -86.0261 326° Northwest 431 496 36,000  Level Atlanta Center
05:06PM 33.3620 -86.5790 326° Northwest 444 511 36,000  Level FlightAware
05:07PM 33.4470 -86.6240 336° Northwest 441 507 36,000  Level FlightAware
05:08PM 33.5210 -86.6640 336° Northwest 438 504 36,000  Level FlightAware
05:09PM 33.5970 -86.7050 336° Northwest 435 501 36,000  Level FlightAware
05:09PM 33.6800 -86.7510 335° Northwest 433 498 36,000  Level FlightAware
05:10PM 33.7580 -86.7930 336° Northwest 432 497 36,000  Level FlightAware
05:11PM 33.8730 -86.8590 335° Northwest 428 493 36,000  Level FlightAware
05:12PM 33.9390 -86.8970 334° Northwest 426 490 36,000  Level FlightAware
05:13PM 34.0260 -86.9450 335° Northwest 426 490 36,000  Level FlightAware
05:13PM 34.0870 -86.9800 335° Northwest 426 490 36,000  Level FlightAware
05:14PM 34.1470 -87.0140 335° Northwest 426 490 36,000  Level FlightAware
05:15PM 34.2080 -87.0480 335° Northwest 426 490 36,000  Level FlightAware
05:15PM 34.2690 -87.0820 335° Northwest 426 490 36,000  Level FlightAware
05:16PM 34.3450 -87.1250 335° Northwest 426 490 36,000  Level FlightAware
05:17PM 34.4060 -87.1590 335° Northwest 426 490 36,000  Level FlightAware
05:18PM 34.4660 -87.1940 334° Northwest 426 490 36,000  Level FlightAware
05:18PM 34.5270 -87.2280 335° Northwest 426 490 36,000  Level FlightAware
05:19PM 34.5880 -87.2630 335° Northwest 426 490 36,000  Level FlightAware
05:20PM 34.6640 -87.3060 335° Northwest 426 490 36,000  Level FlightAware
05:20PM 34.7240 -87.3400 335° Northwest 426 490 36,000  Level FlightAware
05:21PM 34.7850 -87.3740 335° Northwest 426 490 36,000  Level FlightAware
05:22PM 34.8460 -87.4090 335° Northwest 426 490 36,000  Level FlightAware
05:22PM 35.1144 -87.5681 334° Northwest 456 525 36,000  Level FlightAware ADS-B
05:23PM 35.1783 -87.6051 335° Northwest 458 527 36,000  Level FlightAware ADS-B
05:23PM 35.2390 -87.6400 335° Northwest 458 527 36,000  Level FlightAware
05:24PM 35.3290 -87.6930 334° Northwest 460 529 36,000  Level FlightAware
05:25PM 35.4270 -87.7500 335° Northwest 461 531 36,000  Level FlightAware
05:26PM 35.5290 -87.8100 334° Northwest 461 531 36,000  Level FlightAware
05:27PM 35.6040 -87.8540 335° Northwest 462 532 36,000  Level FlightAware
05:27PM 35.6840 -87.9020 334° Northwest 461 531 36,000  Level FlightAware
05:28PM 35.7800 -87.9570 335° Northwest 457 526 36,000  Level FlightAware
05:29PM 35.8670 -88.0090 334° Northwest 451 519 36,000  Level FlightAware
05:30PM 35.9430 -88.0540 334° Northwest 449 517 36,000  Level FlightAware
05:30PM 36.0170 -88.0980 334° Northwest 447 514 36,000  Level FlightAware
05:31PM 36.0860 -88.1390 334° Northwest 447 514 36,000  Level FlightAware
05:32PM 36.1650 -88.1860 334° Northwest 447 514 36,000  Level FlightAware
05:32PM 36.2400 -88.2310 334° Northwest 447 514 36,000  Level FlightAware
05:33PM 36.3030 -88.2690 334° Northwest 447 514 36,000  Level FlightAware
05:34PM 36.3820 -88.3170 334° Northwest 447 514 36,000  Level FlightAware
05:34PM 36.4910 -88.3820 334° Northwest 449 517 36,000  Level FlightAware
05:35PM 36.5770 -88.4310 335° Northwest 447 514 36,000  Level FlightAware
05:36PM 36.6600 -88.4480 351° North 442 509 36,000  Level FlightAware
05:36PM 36.7300 -88.4520 357° North 442 509 36,000  Level FlightAware
05:37PM 36.8300 -88.4590 357° North 442 509 36,000  Level FlightAware
05:38PM 36.9100 -88.4760 350° North 444 511 36,000  Level FlightAware
05:39PM 36.9880 -88.5080 342° North 444 511 36,000  Level FlightAware
05:39PM 37.0710 -88.5740 328° Northwest 449 517 36,000  Level FlightAware
05:40PM 37.1350 -88.6160 332° Northwest 450 518 36,000  Level FlightAware
05:41PM 37.2220 -88.6720 333° Northwest 450 518 36,000  Level FlightAware
05:41PM 37.3030 -88.7230 333° Northwest 450 518 36,000  Level FlightAware
05:42PM 37.3840 -88.7760 333° Northwest 448 516 36,000  Level FlightAware
05:43PM 37.4600 -88.8250 333° Northwest 445 512 36,000  Level FlightAware
05:44PM 37.5350 -88.8730 333° Northwest 444 511 36,000  Level FlightAware
05:44PM 37.5910 -88.9090 333° Northwest 443 510 36,000  Level FlightAware
05:45PM 37.6760 -88.9640 333° Northwest 443 510 36,000  Level FlightAware
05:46PM 37.7970 -89.0430 333° Northwest 445 512 36,000  Level FlightAware
05:47PM 37.8700 -89.0910 333° Northwest 446 513 36,000  Level FlightAware
05:47PM 37.9440 -89.1400 332° Northwest 449 517 36,000  Level FlightAware
05:48PM 38.0300 -89.1960 333° Northwest 451 519 36,000  Level FlightAware
05:49PM 38.0800 -89.2290 333° Northwest 451 519 36,000  Level FlightAware
05:49PM 38.1740 -89.2910 333° Northwest 452 520 36,000  Level FlightAware
05:50PM 38.2460 -89.3380 333° Northwest 452 520 36,000  Level FlightAware
05:51PM 38.3560 -89.4120 332° Northwest 452 520 36,000  Level FlightAware
05:52PM 38.4390 -89.4670 333° Northwest 454 522 36,000  Level FlightAware
05:52PM 38.5170 -89.5190 332° Northwest 455 524 36,000  Level FlightAware
05:53PM 38.5950 -89.5710 332° Northwest 455 524 36,000  Level FlightAware
05:54PM 38.6720 -89.6230 332° Northwest 455 524 36,000  Level FlightAware
05:55PM 38.7510 -89.6760 332° Northwest 456 525 36,000  Level FlightAware
05:55PM 38.8230 -89.7240 333° Northwest 456 525 36,000  Level FlightAware
05:56PM 38.9120 -89.7840 332° Northwest 457 526 36,000  Level FlightAware
05:57PM 38.9910 -89.8380 332° Northwest 458 527 36,000  Level FlightAware
05:57PM 39.0690 -89.8910 332° Northwest 459 528 36,000  Level FlightAware
05:58PM 39.1480 -89.9450 332° Northwest 460 529 36,000  Level FlightAware
05:59PM 39.2240 -89.9960 333° Northwest 462 532 36,000  Level FlightAware
05:59PM 39.3000 -90.0500 331° Northwest 462 532 36,000  Level FlightAware
06:00PM 39.3850 -90.1070 333° Northwest 462 532 36,000  Level FlightAware
06:01PM 39.4610 -90.1590 332° Northwest 462 532 36,000  Level FlightAware
06:02PM 39.5440 -90.2170 332° Northwest 462 532 36,000  Level FlightAware
06:02PM 39.6020 -90.2570 332° Northwest 462 532 36,000  Level FlightAware
06:03PM 39.7060 -90.3290 332° Northwest 463 533 36,000  Level FlightAware
06:04PM 39.7790 -90.3800 332° Northwest 463 533 36,000  Level FlightAware
06:04PM 39.8570 -90.4340 332° Northwest 463 533 36,000  Level FlightAware
06:05PM 39.9380 -90.4910 332° Northwest 464 534 36,000  Level FlightAware
06:06PM 40.0170 -90.5460 332° Northwest 465 535 36,000  Level FlightAware
06:07PM 40.1130 -90.6140 332° Northwest 466 536 36,000  Level FlightAware
06:07PM 40.2070 -90.6800 332° Northwest 465 535 36,000  Level FlightAware
06:08PM 40.2830 -90.7340 332° Northwest 466 536 36,000  Level FlightAware
06:09PM 40.3560 -90.7860 332° Northwest 466 536 36,000  Level FlightAware
06:09PM 40.4450 -90.8490 332° Northwest 468 539 36,000  Level FlightAware
06:10PM 40.5220 -90.9040 332° Northwest 470 541 36,000  Level FlightAware
06:11PM 40.5750 -90.9430 331° Northwest 470 541 36,000  Level FlightAware
06:11PM 40.6610 -91.0040 332° Northwest 471 542 36,000  Level FlightAware
06:12PM 40.7430 -91.0630 331° Northwest 473 544 36,000  Level FlightAware
06:13PM 40.8180 -91.1170 331° Northwest 474 545 36,000  Level FlightAware
06:13PM 40.9050 -91.1800 331° Northwest 474 545 36,000  Level FlightAware
06:14PM 40.9790 -91.2340 331° Northwest 476 548 36,000  Level FlightAware
06:15PM 41.0700 -91.3000 331° Northwest 477 549 36,000  Level FlightAware
06:16PM 41.1470 -91.3560 331° Northwest 478 550 36,000  Level FlightAware
06:16PM 41.2140 -91.4050 331° Northwest 477 549 36,000  Level FlightAware
06:17PM 41.3390 -91.4970 331° Northwest 476 548 36,000  Level FlightAware
06:18PM 41.4130 -91.5510 331° Northwest 475 547 36,000  Level FlightAware
06:19PM 41.4950 -91.6110 331° Northwest 475 547 36,000  Level FlightAware
06:19PM 41.5770 -91.6720 331° Northwest 475 547 36,000  Level FlightAware
06:20PM 41.6590 -91.7330 331° Northwest 476 548 36,000  Level FlightAware
06:21PM 41.7210 -91.7790 331° Northwest 477 549 36,000  Level FlightAware
06:21PM 41.8230 -91.8550 331° Northwest 478 550 36,000  Level FlightAware
06:22PM 41.8930 -91.9080 331° Northwest 479 551 36,000  Level FlightAware
06:23PM 41.9880 -91.9790 331° Northwest 480 552 36,000  Level FlightAware
06:23PM 42.0640 -92.0360 331° Northwest 482 555 36,000 -120 Level FlightAware
06:24PM 42.1480 -92.1000 331° Northwest 475 547 35,900 -1,020 Descending FlightAware
06:25PM 42.2280 -92.1600 331° Northwest 475 547 34,600 -1,440 Descending FlightAware
06:26PM 42.3060 -92.2190 331° Northwest 481 554 34,000 -480 Descending FlightAware
06:26PM 42.3930 -92.2860 330° Northwest 478 550 34,000  Level FlightAware
06:27PM 42.4730 -92.3470 331° Northwest 476 548 34,000  Level FlightAware
06:28PM 42.5550 -92.4120 330° Northwest 477 549 34,000  Level FlightAware
06:28PM 42.6290 -92.4780 327° Northwest 477 549 34,000  Level FlightAware
06:29PM 42.6950 -92.5380 326° Northwest 477 549 34,000  Level FlightAware
06:30PM 42.7680 -92.6060 326° Northwest 476 548 34,000  Level FlightAware
06:30PM 42.8470 -92.6790 326° Northwest 476 548 34,000 -360 Level FlightAware
06:31PM 42.9210 -92.7470 326° Northwest 477 549 33,500 -1,020 Descending FlightAware
06:32PM 42.9960 -92.8160 326° Northwest 482 555 32,700 -1,200 Descending FlightAware
06:32PM 43.0770 -92.8920 326° Northwest 482 555 31,800 -1,020 Descending FlightAware
06:33PM 43.1500 -92.9600 326° Northwest 479 551 31,300 -1,020 Descending FlightAware
06:34PM 43.2370 -93.0420 326° Northwest 480 552 30,400 -1,140 Descending FlightAware
06:35PM 43.3100 -93.1100 326° Northwest 480 552 29,700 -1,020 Descending FlightAware
06:35PM 43.3860 -93.1820 325° Northwest 481 554 29,000 -1,560 Descending FlightAware
06:36PM 43.4640 -93.2550 326° Northwest 484 557 27,500 -2,580 Descending FlightAware
06:37PM 43.5510 -93.2920 343° North 477 549 25,600 -2,760 Descending FlightAware
06:37PM 43.5710 -93.2920 360° North 475 547 25,200 -3,120 Descending FlightAware
06:37PM 43.6600 -93.2840 North 456 525 23,000 -3,240 Descending FlightAware
06:38PM 43.7400 -93.2760 North 436 502 20,900 -3,300 Descending FlightAware
06:39PM 43.8250 -93.2500 12° North 417 480 18,400 -3,360 Descending FlightAware
06:40PM 43.8860 -93.1870 37° Northeast 402 463 16,200 -3,120 Descending FlightAware
06:40PM 43.9450 -93.1110 43° Northeast 388 447 14,000 -3,120 Descending FlightAware
06:41PM 44.0040 -93.0490 37° Northeast 377 434 11,800 -3,180 Descending FlightAware
06:41PM 44.0280 -93.0420 12° North 371 427 11,100 -2,280 Descending FlightAware
06:42PM 44.0770 -93.0570 348° North 347 399 10,100 -900 Descending FlightAware
06:42PM 44.1240 -93.1080 322° Northwest 305 351 10,100 -180 Level FlightAware
06:43PM 44.1540 -93.1450 319° Northwest 282 325 9,900 -240 Descending FlightAware
06:43PM 44.1800 -93.1760 319° Northwest 283 326 9,900  Level FlightAware
06:44PM 44.2110 -93.2120 320° Northwest 277 319 9,900  Level FlightAware
06:44PM 44.2380 -93.2250 341° North 278 320 9,900  Level FlightAware
06:44PM 44.2590 -93.2240 North 277 319 9,900  Level FlightAware
06:45PM 44.2780 -93.2230 North 278 320 9,900  Level FlightAware
06:45PM 44.3150 -93.2110 13° North 270 311 9,900  Level FlightAware
06:46PM 44.3440 -93.1950 22° Northeast 246 283 9,900  Level FlightAware
06:46PM 44.3750 -93.1770 23° Northeast 239 275 9,900 -480 Level FlightAware
06:47PM 44.3990 -93.1640 21° North 223 257 9,500 -1,200 Descending FlightAware
06:47PM 44.4270 -93.1490 21° North 209 241 8,800 -1,680 Descending FlightAware
06:47PM 44.4500 -93.1400 16° North 206 237 8,000 -1,860 Descending FlightAware
06:48PM 44.4790 -93.1430 356° North 212 244 7,100 -1,140 Descending FlightAware
06:48PM 44.5080 -93.1510 349° North 208 239 6,900 -240 Descending FlightAware
06:49PM 44.5310 -93.1580 348° North 209 241 6,900 -360 Level FlightAware
06:49PM 44.5610 -93.1660 349° North 213 245 6,600 -840 Descending FlightAware
06:50PM 44.5890 -93.1730 350° North 208 239 6,100 -1,020 Descending FlightAware
06:50PM 44.6140 -93.1790 350° North 207 238 5,700 -1,200 Descending FlightAware
06:51PM 44.6430 -93.1870 349° North 211 243 5,000 -1,320 Descending FlightAware
06:51PM 44.6640 -93.1920 350° North 204 235 4,500 -1,140 Descending FlightAware
06:52PM 44.6930 -93.2000 349° North 192 221 4,000 -1,020 Descending FlightAware
06:52PM 44.7180 -93.2060 350° North 197 227 3,500 -1,140 Descending FlightAware
06:53PM 44.7420 -93.2120 350° North 188 216 3,000 -1,140 Descending FlightAware
06:53PM 44.7660 -93.2180 350° North 187 215 2,500 -1,020 Descending FlightAware
06:54PM 44.7910 -93.2250 349° North 160 184 2,000 -900 Descending FlightAware
06:54PM 44.8070 -93.2290 350° North 147 169 1,700 -660 Descending FlightAware
06:55PM 44.8280 -93.2340 350° North 151 174 1,400 -780 Descending FlightAware
06:55PM 44.8460 -93.2390 349° North 142 163 1,000 -780 Descending FlightAware
06:55PM 44.8650 -93.2440 349° North 145 167 700 -600 Descending FlightAware